Terminal Aerodrome Forecast
Issued by NWS Blacksburg, VA

Current Version | Previous Version | Text Only | Print | Product List | Glossary Off
Versions: 1 2 3 4 5 6 7 8 9 10 11 12 13 14 15 16 17 18 19 20 21 22 23 24 25 26 27 28 29 30 31 32 33 34 35

817
FTUS41 KRNK 251436 AAA
TAFBLF
TAF AMD
KBLF 251436Z 2515/2612 06006KT P6SM -DZ OVC004 WS020/08035KT
     FM251800 06005KT P6SM SCT008 OVC015
     FM260300 VRB03KT 4SM BR BKN008
     FM260600 25003KT 1/2SM FG OVC002=

USA.gov is the U.S. government's official web portal to all federal, state and local government web resources and services.